sensor_id;sensor_type;location;lat;lon;timestamp;temperature;humidity
4826;DHT22;2427;50.934;6.776;2022-09-17T00:00:47;9.70;1.00
4826;DHT22;2427;50.934;6.776;2022-09-17T00:03:13;9.70;99.90
4826;DHT22;2427;50.934;6.776;2022-09-17T00:05:39;9.70;1.00
4826;DHT22;2427;50.934;6.776;2022-09-17T00:08:06;9.80;99.90
4826;DHT22;2427;50.934;6.776;2022-09-17T00:10:37;9.80;99.90
4826;DHT22;2427;50.934;6.776;2022-09-17T00:13:03;9.90;95.10
4826;DHT22;2427;50.934;6.776;2022-09-17T00:15:29;9.90;13.40
4826;DHT22;2427;50.934;6.776;2022-09-17T00:17:55;9.90;1.00
4826;DHT22;2427;50.934;6.776;2022-09-17T00:20:23;10.00;1.00
4826;DHT22;2427;50.934;6.776;2022-09-17T00:22:48;10.00;1.00
4826;DHT22;2427;50.934;6.776;2022-09-17T00:25:14;10.00;1.00
4826;DHT22;2427;50.934;6.776;2022-09-17T00:27:40;10.00;1.00
4826;DHT22;2427;50.934;6.776;2022-09-17T00:30:07;10.00;1.00
4826;DHT22;2427;50.934;6.776;2022-09-17T00:32:32;10.00;1.00
4826;DHT22;2427;50.934;6.776;2022-09-17T00:34:58;10.00;1.00
4826;DHT22;2427;50.934;6.776;2022-09-17T00:37:23;10.00;1.00
4826;DHT22;2427;50.934;6.776;2022-09-17T00:39:49;10.00;99.90
4826;DHT22;2427;50.934;6.776;2022-09-17T00:42:17;10.00;99.90
4826;DHT22;2427;50.934;6.776;2022-09-17T00:49:48;10.00;1.00
4826;DHT22;2427;50.934;6.776;2022-09-17T00:52:29;9.90;1.00
4826;DHT22;2427;50.934;6.776;2022-09-17T00:57:38;10.00;1.00
4826;DHT22;2427;50.934;6.776;2022-09-17T01:16:00;9.90;1.00
4826;DHT22;2427;50.934;6.776;2022-09-17T01:27:12;10.00;1.00
4826;DHT22;2427;50.934;6.776;2022-09-17T01:32:44;9.90;99.90
4826;DHT22;2427;50.934;6.776;2022-09-17T01:38:17;9.90;99.90
4826;DHT22;2427;50.934;6.776;2022-09-17T01:40:55;9.80;1.00
4826;DHT22;2427;50.934;6.776;2022-09-17T01:43:31;9.80;1.00
4826;DHT22;2427;50.934;6.776;2022-09-17T01:46:06;9.80;1.00
4826;DHT22;2427;50.934;6.776;2022-09-17T01:48:43;9.80;1.00
4826;DHT22;2427;50.934;6.776;2022-09-17T01:51:13;9.80;1.00
4826;DHT22;2427;50.934;6.776;2022-09-17T01:53:47;9.80;99.90
4826;DHT22;2427;50.934;6.776;2022-09-17T01:56:19;9.90;1.00
4826;DHT22;2427;50.934;6.776;2022-09-17T01:59:34;9.90;1.00
4826;DHT22;2427;50.934;6.776;2022-09-17T02:01:42;9.90;1.00
4826;DHT22;2427;50.934;6.776;2022-09-17T02:04:31;9.90;1.00
4826;DHT22;2427;50.934;6.776;2022-09-17T02:07:03;10.00;99.90
4826;DHT22;2427;50.934;6.776;2022-09-17T02:09:38;10.00;99.90
4826;DHT22;2427;50.934;6.776;2022-09-17T02:12:09;10.00;99.90
4826;DHT22;2427;50.934;6.776;2022-09-17T02:14:42;10.00;99.90
4826;DHT22;2427;50.934;6.776;2022-09-17T02:17:15;10.00;99.90
4826;DHT22;2427;50.934;6.776;2022-09-17T02:19:46;9.90;99.90
4826;DHT22;2427;50.934;6.776;2022-09-17T02:22:41;9.90;99.90
4826;DHT22;2427;50.934;6.776;2022-09-17T02:25:19;9.90;1.00
4826;DHT22;2427;50.934;6.776;2022-09-17T02:28:04;9.90;1.00
4826;DHT22;2427;50.934;6.776;2022-09-17T02:30:32;9.90;1.00
4826;DHT22;2427;50.934;6.776;2022-09-17T02:32:59;10.00;99.90
4826;DHT22;2427;50.934;6.776;2022-09-17T02:35:25;10.10;16.30
4826;DHT22;2427;50.934;6.776;2022-09-17T02:37:50;10.00;1.00
4826;DHT22;2427;50.934;6.776;2022-09-17T02:40:20;10.00;1.00
4826;DHT22;2427;50.934;6.776;2022-09-17T02:43:13;10.00;1.00
4826;DHT22;2427;50.934;6.776;2022-09-17T02:48:52;10.10;1.00
4826;DHT22;2427;50.934;6.776;2022-09-17T02:51:52;10.10;1.00
4826;DHT22;2427;50.934;6.776;2022-09-17T02:54:30;10.10;1.00
4826;DHT22;2427;50.934;6.776;2022-09-17T02:57:19;10.10;1.00
4826;DHT22;2427;50.934;6.776;2022-09-17T02:59:57;10.10;1.00
4826;DHT22;2427;50.934;6.776;2022-09-17T03:02:33;10.10;1.00
4826;DHT22;2427;50.934;6.776;2022-09-17T03:05:01;10.10;1.00
4826;DHT22;2427;50.934;6.776;2022-09-17T03:07:27;10.10;1.00
4826;DHT22;2427;50.934;6.776;2022-09-17T03:09:53;10.10;1.00
4826;DHT22;2427;50.934;6.776;2022-09-17T03:12:19;10.10;99.90
4826;DHT22;2427;50.934;6.776;2022-09-17T03:14:45;10.20;99.90
4826;DHT22;2427;50.934;6.776;2022-09-17T03:17:11;10.20;99.90
4826;DHT22;2427;50.934;6.776;2022-09-17T03:19:37;10.20;67.40
4826;DHT22;2427;50.934;6.776;2022-09-17T03:22:02;10.20;99.90
4826;DHT22;2427;50.934;6.776;2022-09-17T03:24:28;10.20;99.90
4826;DHT22;2427;50.934;6.776;2022-09-17T03:26:53;10.20;99.90
4826;DHT22;2427;50.934;6.776;2022-09-17T03:29:19;10.30;1.00
4826;DHT22;2427;50.934;6.776;2022-09-17T03:31:45;10.20;1.00
4826;DHT22;2427;50.934;6.776;2022-09-17T03:34:10;10.30;1.00
4826;DHT22;2427;50.934;6.776;2022-09-17T03:36:36;10.30;1.00
4826;DHT22;2427;50.934;6.776;2022-09-17T03:39:02;10.30;1.00
4826;DHT22;2427;50.934;6.776;2022-09-17T03:41:27;10.30;1.00
4826;DHT22;2427;50.934;6.776;2022-09-17T03:43:53;10.30;1.00
4826;DHT22;2427;50.934;6.776;2022-09-17T03:46:19;10.30;1.00
4826;DHT22;2427;50.934;6.776;2022-09-17T03:48:44;10.30;99.90
4826;DHT22;2427;50.934;6.776;2022-09-17T03:51:10;10.30;1.00
4826;DHT22;2427;50.934;6.776;2022-09-17T03:53:36;10.30;1.00
4826;DHT22;2427;50.934;6.776;2022-09-17T03:56:04;10.30;1.00
4826;DHT22;2427;50.934;6.776;2022-09-17T03:58:30;10.30;1.00
4826;DHT22;2427;50.934;6.776;2022-09-17T04:00:56;10.30;99.90
4826;DHT22;2427;50.934;6.776;2022-09-17T04:03:28;10.20;1.00
4826;DHT22;2427;50.934;6.776;2022-09-17T04:05:54;10.10;72.20
4826;DHT22;2427;50.934;6.776;2022-09-17T04:08:20;10.10;85.70
4826;DHT22;2427;50.934;6.776;2022-09-17T04:10:46;10.00;99.90
4826;DHT22;2427;50.934;6.776;2022-09-17T04:13:14;10.00;99.90
4826;DHT22;2427;50.934;6.776;2022-09-17T04:15:40;9.90;99.90
4826;DHT22;2427;50.934;6.776;2022-09-17T04:18:06;9.90;1.00
4826;DHT22;2427;50.934;6.776;2022-09-17T04:20:32;9.90;99.90
4826;DHT22;2427;50.934;6.776;2022-09-17T04:22:57;9.90;1.00
4826;DHT22;2427;50.934;6.776;2022-09-17T04:25:23;9.90;1.00
4826;DHT22;2427;50.934;6.776;2022-09-17T04:27:49;9.80;1.00
4826;DHT22;2427;50.934;6.776;2022-09-17T04:30:15;9.80;1.00
4826;DHT22;2427;50.934;6.776;2022-09-17T04:32:42;9.70;99.90
4826;DHT22;2427;50.934;6.776;2022-09-17T04:35:08;9.70;99.90
4826;DHT22;2427;50.934;6.776;2022-09-17T04:37:34;9.70;99.90
4826;DHT22;2427;50.934;6.776;2022-09-17T04:39:59;9.70;99.90
4826;DHT22;2427;50.934;6.776;2022-09-17T04:42:25;9.70;99.90
4826;DHT22;2427;50.934;6.776;2022-09-17T04:44:50;9.70;99.90
4826;DHT22;2427;50.934;6.776;2022-09-17T04:47:16;9.70;99.90
4826;DHT22;2427;50.934;6.776;2022-09-17T04:49:42;9.70;99.90
4826;DHT22;2427;50.934;6.776;2022-09-17T04:52:07;9.80;99.90
4826;DHT22;2427;50.934;6.776;2022-09-17T04:54:33;9.90;99.90
4826;DHT22;2427;50.934;6.776;2022-09-17T04:56:59;9.90;1.00
4826;DHT22;2427;50.934;6.776;2022-09-17T04:59:24;9.90;1.00
4826;DHT22;2427;50.934;6.776;2022-09-17T05:01:50;9.90;1.00
4826;DHT22;2427;50.934;6.776;2022-09-17T05:04:16;9.90;1.00
4826;DHT22;2427;50.934;6.776;2022-09-17T05:06:41;10.00;1.00
4826;DHT22;2427;50.934;6.776;2022-09-17T05:09:07;9.90;99.90
4826;DHT22;2427;50.934;6.776;2022-09-17T05:11:33;9.90;99.90
4826;DHT22;2427;50.934;6.776;2022-09-17T05:13:58;10.00;1.00
4826;DHT22;2427;50.934;6.776;2022-09-17T05:16:24;10.00;1.00
4826;DHT22;2427;50.934;6.776;2022-09-17T05:18:49;10.00;99.90
4826;DHT22;2427;50.934;6.776;2022-09-17T05:21:16;10.00;1.00
4826;DHT22;2427;50.934;6.776;2022-09-17T05:23:42;10.00;1.00
4826;DHT22;2427;50.934;6.776;2022-09-17T05:26:08;10.00;99.90
4826;DHT22;2427;50.934;6.776;2022-09-17T05:28:33;10.00;99.90
4826;DHT22;2427;50.934;6.776;2022-09-17T05:30:59;10.00;99.90
4826;DHT22;2427;50.934;6.776;2022-09-17T05:33:25;10.00;1.00
4826;DHT22;2427;50.934;6.776;2022-09-17T05:35:51;10.00;1.00
4826;DHT22;2427;50.934;6.776;2022-09-17T05:38:16;10.00;1.00
4826;DHT22;2427;50.934;6.776;2022-09-17T05:40:43;10.00;1.00
4826;DHT22;2427;50.934;6.776;2022-09-17T05:43:09;10.00;99.90
4826;DHT22;2427;50.934;6.776;2022-09-17T05:45:36;10.00;1.00
4826;DHT22;2427;50.934;6.776;2022-09-17T05:48:03;10.00;99.90
4826;DHT22;2427;50.934;6.776;2022-09-17T05:50:30;10.10;99.90
4826;DHT22;2427;50.934;6.776;2022-09-17T05:52:56;10.20;99.90
4826;DHT22;2427;50.934;6.776;2022-09-17T05:55:22;10.30;1.00
4826;DHT22;2427;50.934;6.776;2022-09-17T05:57:49;10.30;1.00
4826;DHT22;2427;50.934;6.776;2022-09-17T06:00:15;10.40;1.00
4826;DHT22;2427;50.934;6.776;2022-09-17T06:02:41;10.50;99.90
4826;DHT22;2427;50.934;6.776;2022-09-17T06:05:07;10.60;1.00
4826;DHT22;2427;50.934;6.776;2022-09-17T06:07:36;10.70;99.90
4826;DHT22;2427;50.934;6.776;2022-09-17T06:10:04;10.80;1.00
4826;DHT22;2427;50.934;6.776;2022-09-17T06:12:30;10.90;99.90
4826;DHT22;2427;50.934;6.776;2022-09-17T06:14:56;11.00;1.00
4826;DHT22;2427;50.934;6.776;2022-09-17T06:17:21;11.00;1.00
4826;DHT22;2427;50.934;6.776;2022-09-17T06:19:47;11.00;1.00
4826;DHT22;2427;50.934;6.776;2022-09-17T06:22:12;11.10;99.90
4826;DHT22;2427;50.934;6.776;2022-09-17T06:24:38;11.20;99.90
4826;DHT22;2427;50.934;6.776;2022-09-17T06:27:03;11.20;99.90
4826;DHT22;2427;50.934;6.776;2022-09-17T06:29:29;11.20;99.90
4826;DHT22;2427;50.934;6.776;2022-09-17T06:31:55;11.30;4.50
4826;DHT22;2427;50.934;6.776;2022-09-17T06:34:21;11.30;1.00
4826;DHT22;2427;50.934;6.776;2022-09-17T06:36:48;11.30;1.00
4826;DHT22;2427;50.934;6.776;2022-09-17T06:39:14;11.30;1.00
4826;DHT22;2427;50.934;6.776;2022-09-17T06:41:43;11.30;1.00
4826;DHT22;2427;50.934;6.776;2022-09-17T06:44:08;11.30;1.00
4826;DHT22;2427;50.934;6.776;2022-09-17T06:46:34;11.30;1.00
4826;DHT22;2427;50.934;6.776;2022-09-17T06:55:39;11.10;1.00
4826;DHT22;2427;50.934;6.776;2022-09-17T06:58:08;11.00;1.00
4826;DHT22;2427;50.934;6.776;2022-09-17T07:00:34;11.00;1.00
4826;DHT22;2427;50.934;6.776;2022-09-17T07:03:00;11.10;1.00
4826;DHT22;2427;50.934;6.776;2022-09-17T07:05:27;11.10;1.00
4826;DHT22;2427;50.934;6.776;2022-09-17T07:07:59;11.20;1.00
4826;DHT22;2427;50.934;6.776;2022-09-17T07:10:24;11.20;1.00
4826;DHT22;2427;50.934;6.776;2022-09-17T07:12:51;11.20;1.00
4826;DHT22;2427;50.934;6.776;2022-09-17T07:15:16;11.20;1.00
4826;DHT22;2427;50.934;6.776;2022-09-17T07:17:42;11.20;1.00
4826;DHT22;2427;50.934;6.776;2022-09-17T07:20:09;11.20;1.00
4826;DHT22;2427;50.934;6.776;2022-09-17T07:22:35;11.20;1.00
4826;DHT22;2427;50.934;6.776;2022-09-17T07:25:00;11.30;1.00
4826;DHT22;2427;50.934;6.776;2022-09-17T07:27:27;11.30;1.00
4826;DHT22;2427;50.934;6.776;2022-09-17T07:29:53;11.40;1.00
4826;DHT22;2427;50.934;6.776;2022-09-17T07:32:19;11.40;1.00
4826;DHT22;2427;50.934;6.776;2022-09-17T07:34:45;11.40;1.00
4826;DHT22;2427;50.934;6.776;2022-09-17T07:37:10;11.40;1.00
4826;DHT22;2427;50.934;6.776;2022-09-17T07:39:36;11.50;1.00
4826;DHT22;2427;50.934;6.776;2022-09-17T07:42:02;11.60;1.00
4826;DHT22;2427;50.934;6.776;2022-09-17T07:49:39;12.00;99.90
4826;DHT22;2427;50.934;6.776;2022-09-17T07:52:06;12.10;99.90
4826;DHT22;2427;50.934;6.776;2022-09-17T07:54:32;12.20;9.60
4826;DHT22;2427;50.934;6.776;2022-09-17T07:56:59;12.40;1.00
4826;DHT22;2427;50.934;6.776;2022-09-17T07:59:24;12.60;1.00
4826;DHT22;2427;50.934;6.776;2022-09-17T08:01:50;12.70;1.00
4826;DHT22;2427;50.934;6.776;2022-09-17T08:04:15;12.80;99.90
4826;DHT22;2427;50.934;6.776;2022-09-17T08:06:41;12.80;99.90
4826;DHT22;2427;50.934;6.776;2022-09-17T08:09:07;12.80;99.90
4826;DHT22;2427;50.934;6.776;2022-09-17T08:11:35;12.80;99.90
4826;DHT22;2427;50.934;6.776;2022-09-17T08:14:01;12.90;99.90
4826;DHT22;2427;50.934;6.776;2022-09-17T08:16:27;12.90;99.90
4826;DHT22;2427;50.934;6.776;2022-09-17T08:18:54;13.00;99.90
4826;DHT22;2427;50.934;6.776;2022-09-17T08:21:20;13.00;99.90
4826;DHT22;2427;50.934;6.776;2022-09-17T08:23:46;12.90;99.90
4826;DHT22;2427;50.934;6.776;2022-09-17T08:26:20;12.90;99.90
4826;DHT22;2427;50.934;6.776;2022-09-17T08:28:52;12.80;99.90
4826;DHT22;2427;50.934;6.776;2022-09-17T08:31:23;12.70;99.90
4826;DHT22;2427;50.934;6.776;2022-09-17T08:33:48;12.70;99.90
4826;DHT22;2427;50.934;6.776;2022-09-17T08:36:16;12.70;99.90
4826;DHT22;2427;50.934;6.776;2022-09-17T08:38:43;12.80;99.90
4826;DHT22;2427;50.934;6.776;2022-09-17T08:46:08;13.10;99.90
4826;DHT22;2427;50.934;6.776;2022-09-17T08:48:42;13.30;99.90
4826;DHT22;2427;50.934;6.776;2022-09-17T08:54:10;13.40;1.00
4826;DHT22;2427;50.934;6.776;2022-09-17T08:56:38;13.50;1.00
4826;DHT22;2427;50.934;6.776;2022-09-17T08:59:21;13.70;1.00
4826;DHT22;2427;50.934;6.776;2022-09-17T09:01:58;13.80;1.00
4826;DHT22;2427;50.934;6.776;2022-09-17T09:04:46;13.90;1.00
4826;DHT22;2427;50.934;6.776;2022-09-17T09:07:36;14.00;1.00
4826;DHT22;2427;50.934;6.776;2022-09-17T09:10:18;13.90;1.00
4826;DHT22;2427;50.934;6.776;2022-09-17T09:12:44;13.80;1.00
4826;DHT22;2427;50.934;6.776;2022-09-17T09:15:22;13.80;1.00
4826;DHT22;2427;50.934;6.776;2022-09-17T09:17:52;13.80;1.00
4826;DHT22;2427;50.934;6.776;2022-09-17T09:20:25;13.90;1.00
4826;DHT22;2427;50.934;6.776;2022-09-17T09:22:54;14.00;1.00
4826;DHT22;2427;50.934;6.776;2022-09-17T09:25:22;14.20;1.00
4826;DHT22;2427;50.934;6.776;2022-09-17T09:30:19;14.10;1.00
4826;DHT22;2427;50.934;6.776;2022-09-17T09:32:57;14.00;1.00
4826;DHT22;2427;50.934;6.776;2022-09-17T09:35:27;14.00;1.00
4826;DHT22;2427;50.934;6.776;2022-09-17T09:40:54;14.20;1.00
4826;DHT22;2427;50.934;6.776;2022-09-17T09:43:28;14.00;1.00
4826;DHT22;2427;50.934;6.776;2022-09-17T09:51:52;14.80;1.00
4826;DHT22;2427;50.934;6.776;2022-09-17T09:56:56;14.50;1.00
4826;DHT22;2427;50.934;6.776;2022-09-17T09:59:23;14.50;1.00
4826;DHT22;2427;50.934;6.776;2022-09-17T10:01:50;14.30;1.00
4826;DHT22;2427;50.934;6.776;2022-09-17T10:04:27;14.20;1.00
4826;DHT22;2427;50.934;6.776;2022-09-17T10:06:59;14.30;1.00
4826;DHT22;2427;50.934;6.776;2022-09-17T10:09:28;14.40;1.00
4826;DHT22;2427;50.934;6.776;2022-09-17T10:14:36;14.80;1.00
4826;DHT22;2427;50.934;6.776;2022-09-17T10:17:21;15.00;1.00
4826;DHT22;2427;50.934;6.776;2022-09-17T10:20:11;15.10;1.00
4826;DHT22;2427;50.934;6.776;2022-09-17T10:22:39;15.00;99.90
4826;DHT22;2427;50.934;6.776;2022-09-17T10:25:17;14.90;99.90
4826;DHT22;2427;50.934;6.776;2022-09-17T10:27:45;14.70;99.90
4826;DHT22;2427;50.934;6.776;2022-09-17T10:32:37;14.40;1.00
4826;DHT22;2427;50.934;6.776;2022-09-17T10:35:25;14.50;1.00
4826;DHT22;2427;50.934;6.776;2022-09-17T10:37:53;14.80;1.00
4826;DHT22;2427;50.934;6.776;2022-09-17T10:42:48;15.20;99.90
4826;DHT22;2427;50.934;6.776;2022-09-17T10:45:26;15.20;99.90
4826;DHT22;2427;50.934;6.776;2022-09-17T10:47:52;15.10;1.00
4826;DHT22;2427;50.934;6.776;2022-09-17T10:50:34;14.70;1.00
4826;DHT22;2427;50.934;6.776;2022-09-17T10:53:14;14.40;1.00
4826;DHT22;2427;50.934;6.776;2022-09-17T10:58:32;14.70;1.00
4826;DHT22;2427;50.934;6.776;2022-09-17T11:01:28;14.60;1.00
4826;DHT22;2427;50.934;6.776;2022-09-17T11:12:27;14.90;99.90
4826;DHT22;2427;50.934;6.776;2022-09-17T11:17:51;15.10;99.90
4826;DHT22;2427;50.934;6.776;2022-09-17T11:42:06;12.40;1.00
4826;DHT22;2427;50.934;6.776;2022-09-17T11:44:39;12.00;1.00
4826;DHT22;2427;50.934;6.776;2022-09-17T11:47:09;11.70;1.00
4826;DHT22;2427;50.934;6.776;2022-09-17T11:49:55;11.50;99.90
4826;DHT22;2427;50.934;6.776;2022-09-17T11:52:23;11.60;99.90
4826;DHT22;2427;50.934;6.776;2022-09-17T11:57:46;12.30;1.00
4826;DHT22;2427;50.934;6.776;2022-09-17T12:03:01;12.90;1.00
4826;DHT22;2427;50.934;6.776;2022-09-17T12:05:34;13.20;1.00
4826;DHT22;2427;50.934;6.776;2022-09-17T12:08:18;13.40;1.00
4826;DHT22;2427;50.934;6.776;2022-09-17T12:16:24;14.00;59.60
4826;DHT22;2427;50.934;6.776;2022-09-17T12:19:10;14.30;1.00
4826;DHT22;2427;50.934;6.776;2022-09-17T12:21:45;14.60;1.00
4826;DHT22;2427;50.934;6.776;2022-09-17T12:43:45;15.90;1.00
4826;DHT22;2427;50.934;6.776;2022-09-17T12:52:12;18.30;1.00
4826;DHT22;2427;50.934;6.776;2022-09-17T13:00:24;19.90;99.90
4826;DHT22;2427;50.934;6.776;2022-09-17T13:06:04;21.30;99.90
4826;DHT22;2427;50.934;6.776;2022-09-17T13:22:47;22.10;99.90
4826;DHT22;2427;50.934;6.776;2022-09-17T13:25:16;22.60;99.90
4826;DHT22;2427;50.934;6.776;2022-09-17T13:27:43;23.10;99.90
4826;DHT22;2427;50.934;6.776;2022-09-17T13:30:11;24.20;99.90
4826;DHT22;2427;50.934;6.776;2022-09-17T13:37:35;26.60;99.90
4826;DHT22;2427;50.934;6.776;2022-09-17T13:40:02;24.90;99.90
4826;DHT22;2427;50.934;6.776;2022-09-17T13:42:30;22.40;99.90
4826;DHT22;2427;50.934;6.776;2022-09-17T13:45:09;21.40;99.90
4826;DHT22;2427;50.934;6.776;2022-09-17T13:47:56;20.80;99.90
4826;DHT22;2427;50.934;6.776;2022-09-17T13:50:33;19.80;99.90
4826;DHT22;2427;50.934;6.776;2022-09-17T13:55:48;18.60;99.90
4826;DHT22;2427;50.934;6.776;2022-09-17T14:24:37;22.40;99.90
4826;DHT22;2427;50.934;6.776;2022-09-17T14:27:28;22.00;99.90
4826;DHT22;2427;50.934;6.776;2022-09-17T14:30:06;19.60;99.90
4826;DHT22;2427;50.934;6.776;2022-09-17T14:35:37;17.30;99.90
4826;DHT22;2427;50.934;6.776;2022-09-17T14:38:47;16.70;99.90
4826;DHT22;2427;50.934;6.776;2022-09-17T14:46:28;16.70;99.90
4826;DHT22;2427;50.934;6.776;2022-09-17T14:48:54;18.50;99.90
4826;DHT22;2427;50.934;6.776;2022-09-17T14:51:23;19.20;99.90
4826;DHT22;2427;50.934;6.776;2022-09-17T14:56:32;18.30;99.90
4826;DHT22;2427;50.934;6.776;2022-09-17T14:58:59;17.50;99.90
4826;DHT22;2427;50.934;6.776;2022-09-17T15:01:27;17.00;99.90
4826;DHT22;2427;50.934;6.776;2022-09-17T15:06:37;16.40;99.90
4826;DHT22;2427;50.934;6.776;2022-09-17T15:09:03;16.30;99.90
4826;DHT22;2427;50.934;6.776;2022-09-17T15:11:34;16.00;99.90
4826;DHT22;2427;50.934;6.776;2022-09-17T15:14:04;15.70;99.90
4826;DHT22;2427;50.934;6.776;2022-09-17T15:16:31;15.30;99.90
4826;DHT22;2427;50.934;6.776;2022-09-17T15:19:00;14.80;1.00
4826;DHT22;2427;50.934;6.776;2022-09-17T15:21:39;14.50;1.00
4826;DHT22;2427;50.934;6.776;2022-09-17T15:24:40;14.20;1.00
4826;DHT22;2427;50.934;6.776;2022-09-17T15:27:14;13.60;1.00
4826;DHT22;2427;50.934;6.776;2022-09-17T15:29:46;12.90;9.50
4826;DHT22;2427;50.934;6.776;2022-09-17T15:32:13;12.60;1.00
4826;DHT22;2427;50.934;6.776;2022-09-17T15:34:40;12.20;99.90
4826;DHT22;2427;50.934;6.776;2022-09-17T15:37:18;12.00;1.00
4826;DHT22;2427;50.934;6.776;2022-09-17T15:39:52;11.80;99.90
4826;DHT22;2427;50.934;6.776;2022-09-17T15:42:26;11.60;1.00
4826;DHT22;2427;50.934;6.776;2022-09-17T15:44:52;11.50;1.00
4826;DHT22;2427;50.934;6.776;2022-09-17T15:50:26;11.40;1.00
4826;DHT22;2427;50.934;6.776;2022-09-17T15:55:40;11.60;99.90
4826;DHT22;2427;50.934;6.776;2022-09-17T15:58:30;11.70;1.00
4826;DHT22;2427;50.934;6.776;2022-09-17T16:11:23;11.80;1.00
4826;DHT22;2427;50.934;6.776;2022-09-17T16:13:50;11.80;1.00
4826;DHT22;2427;50.934;6.776;2022-09-17T16:16:20;11.90;1.00
4826;DHT22;2427;50.934;6.776;2022-09-17T16:18:47;12.00;1.00
4826;DHT22;2427;50.934;6.776;2022-09-17T16:21:14;12.00;1.00
4826;DHT22;2427;50.934;6.776;2022-09-17T16:23:40;12.10;1.00
4826;DHT22;2427;50.934;6.776;2022-09-17T16:26:11;12.10;1.00
4826;DHT22;2427;50.934;6.776;2022-09-17T16:28:38;12.20;1.00
4826;DHT22;2427;50.934;6.776;2022-09-17T16:31:04;12.20;99.90
4826;DHT22;2427;50.934;6.776;2022-09-17T16:33:31;12.20;99.90
4826;DHT22;2427;50.934;6.776;2022-09-17T16:35:57;12.20;99.90
4826;DHT22;2427;50.934;6.776;2022-09-17T16:38:23;12.30;99.90
4826;DHT22;2427;50.934;6.776;2022-09-17T16:40:49;12.40;99.90
4826;DHT22;2427;50.934;6.776;2022-09-17T16:43:16;12.40;32.50
4826;DHT22;2427;50.934;6.776;2022-09-17T16:45:43;12.60;5.10
4826;DHT22;2427;50.934;6.776;2022-09-17T16:48:09;12.70;1.00
4826;DHT22;2427;50.934;6.776;2022-09-17T16:50:34;12.70;1.00
4826;DHT22;2427;50.934;6.776;2022-09-17T16:53:04;12.60;1.00
4826;DHT22;2427;50.934;6.776;2022-09-17T16:55:30;12.50;1.00
4826;DHT22;2427;50.934;6.776;2022-09-17T16:57:58;12.40;1.00
4826;DHT22;2427;50.934;6.776;2022-09-17T17:00:24;12.30;1.00
4826;DHT22;2427;50.934;6.776;2022-09-17T17:02:54;12.30;1.00
4826;DHT22;2427;50.934;6.776;2022-09-17T17:05:22;12.30;1.00
4826;DHT22;2427;50.934;6.776;2022-09-17T17:07:48;12.30;1.00
4826;DHT22;2427;50.934;6.776;2022-09-17T17:10:14;12.30;1.00
4826;DHT22;2427;50.934;6.776;2022-09-17T17:12:39;12.30;1.00
4826;DHT22;2427;50.934;6.776;2022-09-17T17:15:05;12.30;99.90
4826;DHT22;2427;50.934;6.776;2022-09-17T17:17:32;12.30;99.90
4826;DHT22;2427;50.934;6.776;2022-09-17T17:20:00;12.40;99.90
4826;DHT22;2427;50.934;6.776;2022-09-17T17:22:26;12.40;99.90
4826;DHT22;2427;50.934;6.776;2022-09-17T17:24:51;12.30;99.90
4826;DHT22;2427;50.934;6.776;2022-09-17T17:27:17;12.20;99.90
4826;DHT22;2427;50.934;6.776;2022-09-17T17:29:42;12.20;1.00
4826;DHT22;2427;50.934;6.776;2022-09-17T17:32:08;12.10;1.00
4826;DHT22;2427;50.934;6.776;2022-09-17T17:34:34;12.10;1.00
4826;DHT22;2427;50.934;6.776;2022-09-17T17:36:59;12.00;99.90
4826;DHT22;2427;50.934;6.776;2022-09-17T17:39:25;12.00;1.00
4826;DHT22;2427;50.934;6.776;2022-09-17T17:41:50;11.90;1.00
4826;DHT22;2427;50.934;6.776;2022-09-17T17:44:18;11.90;1.00
4826;DHT22;2427;50.934;6.776;2022-09-17T17:46:44;11.80;1.00
4826;DHT22;2427;50.934;6.776;2022-09-17T17:49:09;11.80;1.00
4826;DHT22;2427;50.934;6.776;2022-09-17T17:51:35;11.80;1.00
4826;DHT22;2427;50.934;6.776;2022-09-17T17:54:01;11.80;1.00
4826;DHT22;2427;50.934;6.776;2022-09-17T17:56:26;11.70;1.00
4826;DHT22;2427;50.934;6.776;2022-09-17T17:58:56;11.70;1.00
4826;DHT22;2427;50.934;6.776;2022-09-17T18:01:27;11.70;1.00
4826;DHT22;2427;50.934;6.776;2022-09-17T18:03:58;11.70;1.00
4826;DHT22;2427;50.934;6.776;2022-09-17T18:06:25;11.70;1.00
4826;DHT22;2427;50.934;6.776;2022-09-17T18:08:52;11.60;1.00
4826;DHT22;2427;50.934;6.776;2022-09-17T18:11:18;11.50;99.90
4826;DHT22;2427;50.934;6.776;2022-09-17T18:13:44;11.40;99.90
4826;DHT22;2427;50.934;6.776;2022-09-17T18:16:11;11.30;99.90
4826;DHT22;2427;50.934;6.776;2022-09-17T18:18:39;11.30;1.00
4826;DHT22;2427;50.934;6.776;2022-09-17T18:21:08;11.30;1.00
4826;DHT22;2427;50.934;6.776;2022-09-17T18:23:36;11.30;1.00
4826;DHT22;2427;50.934;6.776;2022-09-17T18:26:03;11.30;99.90
4826;DHT22;2427;50.934;6.776;2022-09-17T18:28:30;11.30;99.90
4826;DHT22;2427;50.934;6.776;2022-09-17T18:31:02;11.30;99.90
4826;DHT22;2427;50.934;6.776;2022-09-17T18:33:28;11.30;99.90
4826;DHT22;2427;50.934;6.776;2022-09-17T18:35:53;11.30;1.00
4826;DHT22;2427;50.934;6.776;2022-09-17T18:38:24;11.20;99.90
4826;DHT22;2427;50.934;6.776;2022-09-17T18:40:50;11.20;1.00
4826;DHT22;2427;50.934;6.776;2022-09-17T18:43:15;11.20;1.00
4826;DHT22;2427;50.934;6.776;2022-09-17T18:45:41;11.20;1.00
4826;DHT22;2427;50.934;6.776;2022-09-17T18:48:07;11.30;1.00
4826;DHT22;2427;50.934;6.776;2022-09-17T18:50:33;11.30;99.90
4826;DHT22;2427;50.934;6.776;2022-09-17T18:52:58;11.30;99.90
4826;DHT22;2427;50.934;6.776;2022-09-17T18:55:24;11.30;16.50
4826;DHT22;2427;50.934;6.776;2022-09-17T18:57:51;11.30;1.00
4826;DHT22;2427;50.934;6.776;2022-09-17T19:00:18;11.30;1.00
4826;DHT22;2427;50.934;6.776;2022-09-17T19:02:48;11.30;1.00
4826;DHT22;2427;50.934;6.776;2022-09-17T19:05:14;11.30;1.00
4826;DHT22;2427;50.934;6.776;2022-09-17T19:07:46;11.40;99.90
4826;DHT22;2427;50.934;6.776;2022-09-17T19:10:13;11.40;99.90
4826;DHT22;2427;50.934;6.776;2022-09-17T19:12:39;11.40;99.90
4826;DHT22;2427;50.934;6.776;2022-09-17T19:15:06;11.40;99.90
4826;DHT22;2427;50.934;6.776;2022-09-17T19:17:34;11.50;1.00
4826;DHT22;2427;50.934;6.776;2022-09-17T19:20:00;11.50;1.00
4826;DHT22;2427;50.934;6.776;2022-09-17T19:22:26;11.50;1.00
4826;DHT22;2427;50.934;6.776;2022-09-17T19:24:51;11.60;1.00
4826;DHT22;2427;50.934;6.776;2022-09-17T19:27:17;11.60;1.00
4826;DHT22;2427;50.934;6.776;2022-09-17T19:29:42;11.60;1.00
4826;DHT22;2427;50.934;6.776;2022-09-17T19:32:08;11.60;1.00
4826;DHT22;2427;50.934;6.776;2022-09-17T19:34:34;11.60;1.00
4826;DHT22;2427;50.934;6.776;2022-09-17T19:36:59;11.60;99.90
4826;DHT22;2427;50.934;6.776;2022-09-17T19:39:25;11.70;99.90
4826;DHT22;2427;50.934;6.776;2022-09-17T19:41:50;11.70;99.90
4826;DHT22;2427;50.934;6.776;2022-09-17T19:44:16;11.70;99.90
4826;DHT22;2427;50.934;6.776;2022-09-17T19:46:41;11.70;99.90
4826;DHT22;2427;50.934;6.776;2022-09-17T19:49:07;11.70;99.90
4826;DHT22;2427;50.934;6.776;2022-09-17T19:51:34;11.70;99.90
4826;DHT22;2427;50.934;6.776;2022-09-17T19:54:00;11.60;99.90
4826;DHT22;2427;50.934;6.776;2022-09-17T19:56:26;11.60;99.90
4826;DHT22;2427;50.934;6.776;2022-09-17T19:58:52;11.60;99.90
4826;DHT22;2427;50.934;6.776;2022-09-17T20:01:18;11.70;1.00
4826;DHT22;2427;50.934;6.776;2022-09-17T20:03:44;11.60;1.00
4826;DHT22;2427;50.934;6.776;2022-09-17T20:06:12;11.70;1.00
4826;DHT22;2427;50.934;6.776;2022-09-17T20:08:49;11.70;1.00
4826;DHT22;2427;50.934;6.776;2022-09-17T20:11:16;11.70;1.00
4826;DHT22;2427;50.934;6.776;2022-09-17T20:13:42;11.70;1.00
4826;DHT22;2427;50.934;6.776;2022-09-17T20:16:13;11.60;1.00
4826;DHT22;2427;50.934;6.776;2022-09-17T20:18:39;11.60;1.00
4826;DHT22;2427;50.934;6.776;2022-09-17T20:21:10;11.50;1.00
4826;DHT22;2427;50.934;6.776;2022-09-17T20:23:36;11.50;1.00
4826;DHT22;2427;50.934;6.776;2022-09-17T20:26:03;11.50;1.00
4826;DHT22;2427;50.934;6.776;2022-09-17T20:28:29;11.50;1.00